createdAt,value
2023-07-10T00:00:14.415Z,53.63
2023-07-10T00:00:35.469Z,53.74
2023-07-10T00:00:56.580Z,53.79
2023-07-10T00:01:17.709Z,53.69
2023-07-10T00:01:38.778Z,53.63
2023-07-10T00:01:59.845Z,53.75
2023-07-10T00:02:20.929Z,53.71
2023-07-10T00:02:42.050Z,53.68
2023-07-10T00:03:03.285Z,53.74
2023-07-10T00:03:24.408Z,53.74
2023-07-10T00:03:45.526Z,53.75
2023-07-10T00:04:06.656Z,53.85
2023-07-10T00:04:27.848Z,53.82
2023-07-10T00:04:48.910Z,53.82
2023-07-10T00:05:09.984Z,53.71
2023-07-10T00:05:31.038Z,53.67
2023-07-10T00:05:52.100Z,53.63
2023-07-10T00:06:13.174Z,53.64
2023-07-10T00:06:34.255Z,53.65
2023-07-10T00:06:55.314Z,53.79
2023-07-10T00:07:16.377Z,53.86
2023-07-10T00:07:37.427Z,54.04
2023-07-10T00:07:58.482Z,53.96
2023-07-10T00:08:19.773Z,53.84
2023-07-10T00:08:42.391Z,53.85
2023-07-10T00:09:05.255Z,53.74
2023-07-10T00:09:26.316Z,53.70
2023-07-10T00:09:47.369Z,53.77
2023-07-10T00:10:08.429Z,53.91
2023-07-10T00:10:29.492Z,53.96
2023-07-10T00:10:50.552Z,53.92
2023-07-10T00:11:11.617Z,53.96
2023-07-10T00:11:32.672Z,53.93
2023-07-10T00:11:53.727Z,53.91
2023-07-10T00:12:14.792Z,53.97
2023-07-10T00:12:35.834Z,54.02
2023-07-10T00:12:56.894Z,54.06
2023-07-10T00:13:17.949Z,54.14
2023-07-10T00:13:39.253Z,54.03
2023-07-10T00:14:00.554Z,54.02
2023-07-10T00:14:21.671Z,54.00
2023-07-10T00:14:42.729Z,54.00
2023-07-10T00:15:03.809Z,54.02
2023-07-10T00:15:24.856Z,54.02
2023-07-10T00:15:45.932Z,54.07
2023-07-10T00:16:06.970Z,54.02
2023-07-10T00:16:28.071Z,53.95
2023-07-10T00:16:49.137Z,53.90
2023-07-10T00:17:10.177Z,53.90
2023-07-10T00:17:31.247Z,53.83
2023-07-10T00:17:52.348Z,53.85
2023-07-10T00:18:13.379Z,53.90
2023-07-10T00:18:34.438Z,53.97
2023-07-10T00:18:55.548Z,54.12
2023-07-10T00:19:16.634Z,54.24
2023-07-10T00:19:37.706Z,54.23
2023-07-10T00:19:58.749Z,54.22
2023-07-10T00:20:19.826Z,54.24
2023-07-10T00:20:40.870Z,54.25
2023-07-10T00:21:01.926Z,54.39
2023-07-10T00:21:22.984Z,54.45
2023-07-10T00:21:44.034Z,54.47
2023-07-10T00:22:05.108Z,54.59
2023-07-10T00:22:26.152Z,54.73
2023-07-10T00:22:47.275Z,54.69
2023-07-10T00:23:08.332Z,54.81
2023-07-10T00:23:29.411Z,54.81
2023-07-10T00:23:50.439Z,54.77
2023-07-10T00:24:11.531Z,54.70
2023-07-10T00:24:32.821Z,54.67
2023-07-10T00:24:53.869Z,54.66
2023-07-10T00:25:14.928Z,54.69
2023-07-10T00:25:35.985Z,54.67
2023-07-10T00:25:57.040Z,54.61
2023-07-10T00:26:18.098Z,54.55
2023-07-10T00:26:39.169Z,54.58
2023-07-10T00:27:00.249Z,54.61
2023-07-10T00:27:21.272Z,54.76
2023-07-10T00:27:42.334Z,54.87
2023-07-10T00:28:03.391Z,54.75
2023-07-10T00:28:24.445Z,54.71
2023-07-10T00:28:45.513Z,54.68
2023-07-10T00:29:06.565Z,54.58
2023-07-10T00:29:27.665Z,54.61
2023-07-10T00:29:48.736Z,54.56
2023-07-10T00:30:09.797Z,54.50
2023-07-10T00:30:30.860Z,54.50
2023-07-10T00:30:51.938Z,54.48
2023-07-10T00:31:13.015Z,54.48
2023-07-10T00:31:34.070Z,54.52
2023-07-10T00:31:55.298Z,54.64
2023-07-10T00:32:16.356Z,54.90
2023-07-10T00:32:37.438Z,54.91
2023-07-10T00:32:58.517Z,54.84
2023-07-10T00:33:19.591Z,54.75
2023-07-10T00:33:40.654Z,54.64
2023-07-10T00:34:01.709Z,54.64
2023-07-10T00:34:22.779Z,54.75
2023-07-10T00:34:43.892Z,54.80
2023-07-10T00:35:05.166Z,54.75
2023-07-10T00:35:26.237Z,54.67
2023-07-10T00:35:47.279Z,54.67
2023-07-10T00:36:08.344Z,54.63
2023-07-10T00:36:29.474Z,54.72
2023-07-10T00:36:50.532Z,54.83
2023-07-10T00:37:11.588Z,54.91
2023-07-10T00:37:32.645Z,55.00
2023-07-10T00:37:53.703Z,54.91
2023-07-10T00:38:14.761Z,54.86
2023-07-10T00:38:35.855Z,54.76
2023-07-10T00:38:56.876Z,54.73
2023-07-10T00:39:17.954Z,54.71
2023-07-10T00:39:38.992Z,54.70
2023-07-10T00:40:00.253Z,54.70
2023-07-10T00:40:21.350Z,54.66
2023-07-10T00:40:42.398Z,54.61
2023-07-10T00:41:03.888Z,54.60
2023-07-10T00:41:24.948Z,54.64
2023-07-10T00:41:46.016Z,54.67
2023-07-10T00:42:07.067Z,54.67
2023-07-10T00:42:28.141Z,54.74
2023-07-10T00:42:49.187Z,54.91
2023-07-10T00:43:10.244Z,55.02
2023-07-10T00:43:31.352Z,55.02
2023-07-10T00:43:52.385Z,54.94
2023-07-10T00:44:13.454Z,54.85
2023-07-10T00:44:34.519Z,54.88
2023-07-10T00:44:55.586Z,54.92
2023-07-10T00:45:16.876Z,55.09
2023-07-10T00:45:37.988Z,55.20
2023-07-10T00:45:59.042Z,55.31
2023-07-10T00:46:20.105Z,55.32
2023-07-10T00:46:41.260Z,55.33
2023-07-10T00:47:02.342Z,55.39
2023-07-10T00:47:23.427Z,55.53
2023-07-10T00:47:44.489Z,55.56
2023-07-10T00:48:05.567Z,55.46
2023-07-10T00:48:26.596Z,55.38
2023-07-10T00:48:47.658Z,55.33
2023-07-10T00:49:08.721Z,55.29
2023-07-10T00:49:29.781Z,55.24
2023-07-10T00:49:50.846Z,55.26
2023-07-10T00:50:11.898Z,55.29
2023-07-10T00:50:33.182Z,55.22
2023-07-10T00:50:54.460Z,55.20
2023-07-10T00:51:15.513Z,55.16
2023-07-10T00:51:36.569Z,55.12
2023-07-10T00:51:57.640Z,55.12
2023-07-10T00:52:18.691Z,55.19
2023-07-10T00:52:39.758Z,55.23
2023-07-10T00:53:00.808Z,55.29
2023-07-10T00:53:21.869Z,55.30
2023-07-10T00:53:42.948Z,55.30
2023-07-10T00:54:03.977Z,55.35
2023-07-10T00:54:25.054Z,55.42
2023-07-10T00:54:46.104Z,55.49
2023-07-10T00:55:07.162Z,55.57
2023-07-10T00:55:28.227Z,55.63
2023-07-10T00:55:49.328Z,55.60
2023-07-10T00:56:10.418Z,55.65
2023-07-10T00:56:31.479Z,55.74
2023-07-10T00:56:52.523Z,55.82
2023-07-10T00:57:13.585Z,55.97
2023-07-10T00:57:34.931Z,56.05
2023-07-10T00:57:56.066Z,55.91
2023-07-10T00:58:29.099Z,55.87
2023-07-10T00:58:44.100Z,56.08
2023-07-10T00:59:05.158Z,56.22
2023-07-10T00:59:26.211Z,56.32
2023-07-10T00:59:47.278Z,56.36
2023-07-10T01:00:08.333Z,56.23
2023-07-10T01:00:29.406Z,56.20
2023-07-10T01:00:50.529Z,56.34
2023-07-10T01:01:11.763Z,56.27
2023-07-10T01:01:32.840Z,56.16
2023-07-10T01:01:53.902Z,56.22
2023-07-10T01:02:15.036Z,56.34
2023-07-10T01:02:36.366Z,56.40
2023-07-10T01:02:57.520Z,56.46
2023-07-10T01:03:18.590Z,56.47
2023-07-10T01:03:39.652Z,56.54
2023-07-10T01:04:00.697Z,56.49
2023-07-10T01:04:21.762Z,56.40
2023-07-10T01:04:42.818Z,56.41
2023-07-10T01:05:03.889Z,56.55
2023-07-10T01:05:24.958Z,56.71
2023-07-10T01:05:46.005Z,56.68
2023-07-10T01:06:07.370Z,56.52
2023-07-10T01:06:28.510Z,56.46
2023-07-10T01:06:49.519Z,56.59
2023-07-10T01:07:10.579Z,56.61
2023-07-10T01:07:31.634Z,56.52
2023-07-10T01:07:52.693Z,56.42
2023-07-10T01:08:13.748Z,56.43
2023-07-10T01:08:34.806Z,56.42
2023-07-10T01:08:55.928Z,56.37
2023-07-10T01:09:16.953Z,56.39
2023-07-10T01:09:38.012Z,56.38
2023-07-10T01:09:59.071Z,56.38
2023-07-10T01:10:20.130Z,56.47
2023-07-10T01:10:41.222Z,56.47
2023-07-10T01:11:02.280Z,56.40
2023-07-10T01:11:23.591Z,56.41
2023-07-10T01:11:44.877Z,56.62
2023-07-10T01:12:05.916Z,56.59
2023-07-10T01:12:26.973Z,56.60
2023-07-10T01:12:48.047Z,56.63
2023-07-10T01:13:09.162Z,56.56
2023-07-10T01:13:30.238Z,56.59
2023-07-10T01:13:51.361Z,56.61
2023-07-10T01:14:12.614Z,56.60
2023-07-10T01:14:33.703Z,56.59
2023-07-10T01:14:54.769Z,56.65
2023-07-10T01:15:15.824Z,56.72
2023-07-10T01:15:36.908Z,56.76
2023-07-10T01:15:57.959Z,56.93
2023-07-10T01:16:19.051Z,57.02
2023-07-10T01:16:40.196Z,57.01
2023-07-10T01:17:01.464Z,56.95
2023-07-10T01:17:22.571Z,56.87
2023-07-10T01:17:43.674Z,56.94
2023-07-10T01:18:04.741Z,57.04
2023-07-10T01:18:25.823Z,57.13
2023-07-10T01:18:46.894Z,57.25
2023-07-10T01:19:07.987Z,57.25
2023-07-10T01:19:29.061Z,57.19
2023-07-10T01:19:50.097Z,57.05
2023-07-10T01:20:11.154Z,57.06
2023-07-10T01:20:32.224Z,56.97
2023-07-10T01:20:53.299Z,57.03
2023-07-10T01:21:14.345Z,57.15
2023-07-10T01:21:35.401Z,57.29
2023-07-10T01:21:56.695Z,57.38
2023-07-10T01:22:17.993Z,57.42
2023-07-10T01:22:39.029Z,57.37
2023-07-10T01:23:00.084Z,57.20
2023-07-10T01:23:21.142Z,57.17
2023-07-10T01:23:42.204Z,57.21
2023-07-10T01:24:03.283Z,57.35
2023-07-10T01:24:24.318Z,57.35
2023-07-10T01:24:45.400Z,57.42
2023-07-10T01:25:06.472Z,57.43
2023-07-10T01:25:27.532Z,57.50
2023-07-10T01:25:48.591Z,57.40
2023-07-10T01:26:09.669Z,57.35
2023-07-10T01:26:30.716Z,57.31
2023-07-10T01:26:51.783Z,57.32
2023-07-10T01:27:12.897Z,57.40
2023-07-10T01:27:34.168Z,57.42
2023-07-10T01:27:55.219Z,57.45
2023-07-10T01:28:16.276Z,57.56
2023-07-10T01:28:37.335Z,57.41
2023-07-10T01:28:58.408Z,57.27
2023-07-10T01:29:19.464Z,57.35
2023-07-10T01:29:40.521Z,57.35
2023-07-10T01:30:01.629Z,57.37
2023-07-10T01:30:22.702Z,57.43
2023-07-10T01:30:43.815Z,57.56
2023-07-10T01:31:04.871Z,57.53
2023-07-10T01:31:25.908Z,57.49
2023-07-10T01:31:46.986Z,57.45
2023-07-10T01:32:08.034Z,57.49
2023-07-10T01:32:29.197Z,57.50
2023-07-10T01:32:50.501Z,57.68
2023-07-10T01:33:11.617Z,57.81
2023-07-10T01:33:32.668Z,57.70
2023-07-10T01:33:53.711Z,57.65
2023-07-10T01:34:14.781Z,57.69
2023-07-10T01:34:35.843Z,57.69
2023-07-10T01:34:56.919Z,57.72
2023-07-10T01:35:17.974Z,57.76
2023-07-10T01:35:39.025Z,57.77
2023-07-10T01:36:00.094Z,57.77
2023-07-10T01:36:21.146Z,57.72
2023-07-10T01:36:42.195Z,57.68
2023-07-10T01:37:03.250Z,57.74
2023-07-10T01:37:24.311Z,57.92
2023-07-10T01:37:45.586Z,58.07
2023-07-10T01:38:06.689Z,58.16
2023-07-10T01:38:27.745Z,58.19
2023-07-10T01:38:48.821Z,58.26
2023-07-10T01:39:09.941Z,58.31
2023-07-10T01:39:30.970Z,58.34
2023-07-10T01:39:52.035Z,58.33
2023-07-10T01:40:13.091Z,58.34
2023-07-10T01:40:34.166Z,58.35
2023-07-10T01:40:55.236Z,58.18
2023-07-10T01:41:16.289Z,58.08
2023-07-10T01:41:37.341Z,58.14
2023-07-10T01:41:58.398Z,58.32
2023-07-10T01:42:19.456Z,58.51
2023-07-10T01:42:40.516Z,58.55
2023-07-10T01:43:01.621Z,58.66
2023-07-10T01:43:22.880Z,58.67
2023-07-10T01:43:43.954Z,58.65
2023-07-10T01:44:05.013Z,58.59
2023-07-10T01:44:26.067Z,58.45
2023-07-10T01:44:47.141Z,58.49
2023-07-10T01:45:08.184Z,58.33
2023-07-10T01:45:29.244Z,58.24
2023-07-10T01:45:50.302Z,58.20
2023-07-10T01:46:11.354Z,58.24
2023-07-10T01:46:32.415Z,58.23
2023-07-10T01:46:53.569Z,58.30
2023-07-10T01:47:14.630Z,58.34
2023-07-10T01:47:35.781Z,58.39
2023-07-10T01:47:57.154Z,58.43
2023-07-10T01:48:18.516Z,58.36
2023-07-10T01:48:39.960Z,58.36
2023-07-10T01:49:01.244Z,58.38
2023-07-10T01:49:22.474Z,58.51
2023-07-10T01:49:43.518Z,58.62
2023-07-10T01:50:04.567Z,58.65
2023-07-10T01:50:25.616Z,58.57
2023-07-10T01:50:46.680Z,58.41
2023-07-10T01:51:07.727Z,58.27
2023-07-10T01:51:28.791Z,58.11
2023-07-10T01:51:49.863Z,58.00
2023-07-10T01:52:10.913Z,57.98
2023-07-10T01:52:31.960Z,58.08
2023-07-10T01:52:53.030Z,58.28
2023-07-10T01:53:14.074Z,58.40
2023-07-10T01:53:35.483Z,58.43
2023-07-10T01:53:56.771Z,58.42
2023-07-10T01:54:17.876Z,58.49
2023-07-10T01:54:38.906Z,58.67
2023-07-10T01:54:59.959Z,58.75
2023-07-10T01:55:21.049Z,58.69
2023-07-10T01:55:42.093Z,58.70
2023-07-10T01:56:03.600Z,58.73
2023-07-10T01:56:24.884Z,58.73
2023-07-10T01:56:45.952Z,58.91
2023-07-10T01:57:07.002Z,58.94
2023-07-10T01:57:28.078Z,59.04
2023-07-10T01:57:49.127Z,59.05
2023-07-10T01:58:10.184Z,59.09
2023-07-10T01:58:31.277Z,59.06
2023-07-10T01:58:52.554Z,59.01
2023-07-10T01:59:13.644Z,59.04
2023-07-10T01:59:34.715Z,59.09
2023-07-10T01:59:55.775Z,59.08
2023-07-10T02:00:16.829Z,58.99
2023-07-10T02:00:37.950Z,59.04
2023-07-10T02:00:58.984Z,59.03
2023-07-10T02:01:20.076Z,59.05
2023-07-10T02:01:42.540Z,59.09
2023-07-10T02:02:04.018Z,59.14
2023-07-10T02:02:25.192Z,59.15
2023-07-10T02:02:46.490Z,59.15
2023-07-10T02:03:07.699Z,59.27
2023-07-10T02:03:28.857Z,59.35
2023-07-10T02:03:50.034Z,59.47
2023-07-10T02:04:11.204Z,59.46
2023-07-10T02:04:32.474Z,59.45
2023-07-10T02:04:53.534Z,59.48
2023-07-10T02:05:14.607Z,59.51
2023-07-10T02:05:35.681Z,59.52
2023-07-10T02:05:56.734Z,59.41
2023-07-10T02:06:17.800Z,59.37
2023-07-10T02:06:38.864Z,59.42
2023-07-10T02:06:59.917Z,59.46
2023-07-10T02:07:20.977Z,59.44
2023-07-10T02:07:42.033Z,59.47
2023-07-10T02:08:03.096Z,59.49
2023-07-10T02:08:24.145Z,59.55
2023-07-10T02:08:45.207Z,59.49
2023-07-10T02:09:06.267Z,59.49
2023-07-10T02:09:27.399Z,59.49
2023-07-10T02:09:48.479Z,59.50
2023-07-10T02:10:09.530Z,59.45
2023-07-10T02:10:44.751Z,59.53
2023-07-10T02:10:57.644Z,59.58
2023-07-10T02:11:18.703Z,59.55
2023-07-10T02:11:39.745Z,59.51
2023-07-10T02:12:00.802Z,59.53
2023-07-10T02:12:21.862Z,59.53
2023-07-10T02:12:42.925Z,59.57
2023-07-10T02:13:03.992Z,59.57
2023-07-10T02:13:25.058Z,59.59
2023-07-10T02:13:46.138Z,59.67
2023-07-10T02:14:07.392Z,59.66
2023-07-10T02:14:28.681Z,59.76
2023-07-10T02:14:49.781Z,59.87
2023-07-10T02:15:10.847Z,59.84
2023-07-10T02:15:31.877Z,59.83
2023-07-10T02:15:52.929Z,59.91
2023-07-10T02:16:13.997Z,59.93
2023-07-10T02:16:35.077Z,59.90
2023-07-10T02:16:56.148Z,59.85
2023-07-10T02:17:17.224Z,59.80
2023-07-10T02:17:38.364Z,59.85
2023-07-10T02:17:59.471Z,59.98
2023-07-10T02:18:20.574Z,59.95
2023-07-10T02:18:41.649Z,59.95
2023-07-10T02:19:02.683Z,59.97
2023-07-10T02:19:23.821Z,60.11
2023-07-10T02:19:44.884Z,60.32
2023-07-10T02:20:05.976Z,60.57
2023-07-10T02:20:27.031Z,60.86
2023-07-10T02:20:48.086Z,60.83
2023-07-10T02:21:09.146Z,60.85
2023-07-10T02:21:30.213Z,60.99
2023-07-10T02:21:51.306Z,61.25
2023-07-10T02:22:12.334Z,61.52
2023-07-10T02:22:33.386Z,61.48
2023-07-10T02:22:54.463Z,61.60
2023-07-10T02:23:15.511Z,61.63
2023-07-10T02:23:36.915Z,61.72
2023-07-10T02:23:58.294Z,61.92
2023-07-10T02:24:19.371Z,61.87
2023-07-10T02:24:40.453Z,61.82
2023-07-10T02:25:01.697Z,61.70
2023-07-10T02:25:22.806Z,61.57
2023-07-10T02:25:43.848Z,61.42
2023-07-10T02:26:05.209Z,61.21
2023-07-10T02:26:26.473Z,61.26
2023-07-10T02:26:47.535Z,61.45
2023-07-10T02:27:08.589Z,61.45
2023-07-10T02:27:29.647Z,61.38
2023-07-10T02:27:50.717Z,61.36
2023-07-10T02:28:11.806Z,61.36
2023-07-10T02:28:32.862Z,61.34
2023-07-10T02:28:53.940Z,61.14
2023-07-10T02:29:15.026Z,61.33
2023-07-10T02:29:36.122Z,61.46
2023-07-10T02:29:57.172Z,61.53
2023-07-10T02:30:18.463Z,61.59
2023-07-10T02:30:39.718Z,61.48
2023-07-10T02:31:00.785Z,61.50
2023-07-10T02:31:21.912Z,61.72
2023-07-10T02:31:43.000Z,61.86
2023-07-10T02:32:04.114Z,61.75
2023-07-10T02:32:25.294Z,61.85
2023-07-10T02:32:46.416Z,61.83
2023-07-10T02:33:07.502Z,62.03
2023-07-10T02:33:28.567Z,62.19
2023-07-10T02:33:49.619Z,62.17
2023-07-10T02:34:10.670Z,62.17
2023-07-10T02:34:31.733Z,62.27
2023-07-10T02:34:52.799Z,62.27
2023-07-10T02:35:13.846Z,62.29
2023-07-10T02:35:34.960Z,62.38
2023-07-10T02:35:56.234Z,62.51
2023-07-10T02:36:17.294Z,62.58
2023-07-10T02:36:38.352Z,62.51
2023-07-10T02:36:59.415Z,62.62
2023-07-10T02:37:20.476Z,63.06
2023-07-10T02:37:41.543Z,63.98
2023-07-10T02:38:02.610Z,64.92
2023-07-10T02:38:23.663Z,65.63
2023-07-10T02:38:44.719Z,66.47
2023-07-10T02:39:05.782Z,67.15
2023-07-10T02:39:26.845Z,67.71
2023-07-10T02:39:47.919Z,67.98
2023-07-10T02:40:08.968Z,68.29
2023-07-10T02:40:30.035Z,68.57
2023-07-10T02:40:51.303Z,68.58
2023-07-10T02:41:12.574Z,68.01
2023-07-10T02:41:33.641Z,68.22
2023-07-10T02:41:54.702Z,68.02
2023-07-10T02:42:15.764Z,68.17
2023-07-10T02:42:36.837Z,68.36
2023-07-10T02:42:57.883Z,68.74
2023-07-10T02:43:18.940Z,68.17
2023-07-10T02:43:40.002Z,67.88
2023-07-10T02:44:01.067Z,68.48
2023-07-10T02:44:22.117Z,69.18
2023-07-10T02:44:43.171Z,69.43
2023-07-10T02:45:04.223Z,68.95
2023-07-10T02:45:25.289Z,69.18
2023-07-10T02:45:46.353Z,69.28
2023-07-10T02:46:07.723Z,69.44
2023-07-10T02:46:29.318Z,69.56
2023-07-10T02:46:50.347Z,69.47
2023-07-10T02:47:11.407Z,69.20
2023-07-10T02:47:32.478Z,69.12
2023-07-10T02:47:53.619Z,69.26
2023-07-10T02:48:14.649Z,69.26
2023-07-10T02:48:35.714Z,69.28
2023-07-10T02:48:56.852Z,69.48
2023-07-10T02:49:17.911Z,69.57
2023-07-10T02:49:38.968Z,69.45
2023-07-10T02:50:00.037Z,69.48
2023-07-10T02:50:21.080Z,69.69
2023-07-10T02:50:42.138Z,69.93
2023-07-10T02:51:03.210Z,70.11
2023-07-10T02:51:24.280Z,69.75
2023-07-10T02:51:45.377Z,69.00
2023-07-10T02:52:06.435Z,69.18
2023-07-10T02:52:27.485Z,69.26
2023-07-10T02:52:48.569Z,69.49
2023-07-10T02:53:09.625Z,69.46
2023-07-10T02:53:30.792Z,69.53
2023-07-10T02:53:51.845Z,69.42
2023-07-10T02:54:12.920Z,69.55
2023-07-10T02:54:33.972Z,69.34
2023-07-10T02:54:55.051Z,69.27
2023-07-10T02:55:16.086Z,69.31
2023-07-10T02:55:37.153Z,69.35
2023-07-10T02:55:58.201Z,69.22
2023-07-10T02:56:19.258Z,69.27
2023-07-10T02:56:40.356Z,69.30
2023-07-10T02:57:01.448Z,69.24
2023-07-10T02:57:22.574Z,69.49
2023-07-10T02:57:43.667Z,69.90
2023-07-10T02:58:04.782Z,70.05
2023-07-10T02:58:25.905Z,69.84
2023-07-10T02:58:46.950Z,69.73
2023-07-10T02:59:08.004Z,70.01
2023-07-10T02:59:29.074Z,70.26
2023-07-10T02:59:50.137Z,70.54
2023-07-10T03:00:11.193Z,70.61
2023-07-10T03:00:32.249Z,70.82
2023-07-10T03:00:53.328Z,71.03
2023-07-10T03:01:14.388Z,71.26
2023-07-10T03:01:35.556Z,70.75
2023-07-10T03:01:56.802Z,70.00
2023-07-10T03:02:17.905Z,69.94
2023-07-10T03:02:39.063Z,69.98
2023-07-10T03:03:00.142Z,69.79
2023-07-10T03:03:21.195Z,69.71
2023-07-10T03:03:42.239Z,69.69
2023-07-10T03:04:03.317Z,69.62
2023-07-10T03:04:24.410Z,69.33
2023-07-10T03:04:45.511Z,69.00
2023-07-10T03:05:06.573Z,69.00
2023-07-10T03:05:27.616Z,68.83
2023-07-10T03:05:48.676Z,68.76
2023-07-10T03:06:09.743Z,68.88
2023-07-10T03:06:30.795Z,69.30
2023-07-10T03:06:51.855Z,70.01
2023-07-10T03:07:13.134Z,70.53
2023-07-10T03:07:34.228Z,70.73
2023-07-10T03:07:55.286Z,70.88
2023-07-10T03:08:16.336Z,71.05
2023-07-10T03:08:37.397Z,71.20
2023-07-10T03:08:58.455Z,71.39
2023-07-10T03:09:19.508Z,71.33
2023-07-10T03:09:40.575Z,71.38
2023-07-10T03:10:01.651Z,71.46
2023-07-10T03:10:22.695Z,71.55
2023-07-10T03:10:43.743Z,71.66
2023-07-10T03:11:04.801Z,71.76
2023-07-10T03:11:25.859Z,71.82
2023-07-10T03:11:46.922Z,71.90
2023-07-10T03:12:07.970Z,72.06
2023-07-10T03:12:29.089Z,72.23
2023-07-10T03:12:50.192Z,72.34
2023-07-10T03:13:11.246Z,72.36
2023-07-10T03:13:32.396Z,72.35
2023-07-10T03:13:53.470Z,72.33
2023-07-10T03:14:14.568Z,72.19
2023-07-10T03:14:35.641Z,71.91
2023-07-10T03:14:56.691Z,71.75
2023-07-10T03:15:17.762Z,71.56
2023-07-10T03:15:38.873Z,71.64
2023-07-10T03:15:59.935Z,71.83
2023-07-10T03:16:21.064Z,71.86
2023-07-10T03:16:42.232Z,71.80
2023-07-10T03:17:03.345Z,72.13
2023-07-10T03:17:24.392Z,72.44
2023-07-10T03:17:45.684Z,72.60
2023-07-10T03:18:06.815Z,72.65
2023-07-10T03:18:27.848Z,72.70
2023-07-10T03:18:48.919Z,72.84
2023-07-10T03:19:09.970Z,72.91
2023-07-10T03:19:31.031Z,72.76
2023-07-10T03:19:52.094Z,72.61
2023-07-10T03:20:13.136Z,72.82
2023-07-10T03:20:34.195Z,72.97
2023-07-10T03:20:55.264Z,73.11
2023-07-10T03:21:16.338Z,73.12
2023-07-10T03:21:37.399Z,73.22
2023-07-10T03:21:58.436Z,73.26
2023-07-10T03:22:19.498Z,73.38
2023-07-10T03:22:40.561Z,73.28
2023-07-10T03:23:01.837Z,73.11
2023-07-10T03:23:23.083Z,73.05
2023-07-10T03:23:44.148Z,73.13
2023-07-10T03:24:05.226Z,73.18
2023-07-10T03:24:26.269Z,73.25
2023-07-10T03:24:47.337Z,73.26
2023-07-10T03:25:08.436Z,73.30
2023-07-10T03:25:29.482Z,73.32
2023-07-10T03:25:50.520Z,73.47
2023-07-10T03:26:11.568Z,73.55
2023-07-10T03:26:32.646Z,73.62
2023-07-10T03:26:53.674Z,73.76
2023-07-10T03:27:14.743Z,73.84
2023-07-10T03:27:35.802Z,73.89
2023-07-10T03:27:56.865Z,73.93
2023-07-10T03:28:18.138Z,73.87
2023-07-10T03:28:39.384Z,73.85
2023-07-10T03:29:00.445Z,73.74
2023-07-10T03:29:21.518Z,73.53
2023-07-10T03:29:42.558Z,73.48
2023-07-10T03:30:03.648Z,73.53
2023-07-10T03:30:24.707Z,73.60
2023-07-10T03:30:45.771Z,73.64
2023-07-10T03:31:06.865Z,73.75
2023-07-10T03:31:27.923Z,73.81
2023-07-10T03:31:49.029Z,73.88
2023-07-10T03:32:10.085Z,73.94
2023-07-10T03:32:31.161Z,73.92
2023-07-10T03:32:52.254Z,74.14
2023-07-10T03:33:13.323Z,74.38
2023-07-10T03:33:34.523Z,74.39
2023-07-10T03:33:55.582Z,74.51
2023-07-10T03:34:16.645Z,74.74
2023-07-10T03:34:38.660Z,74.95
2023-07-10T03:34:59.807Z,75.11
2023-07-10T03:35:20.894Z,75.21
2023-07-10T03:35:41.963Z,75.25
2023-07-10T03:36:03.458Z,75.15
2023-07-10T03:36:24.693Z,75.04
2023-07-10T03:36:45.782Z,74.90
2023-07-10T03:37:06.834Z,74.75
2023-07-10T03:37:27.908Z,74.50
2023-07-10T03:37:48.950Z,74.53
2023-07-10T03:38:10.019Z,74.45
2023-07-10T03:38:31.083Z,74.34
2023-07-10T03:38:52.340Z,74.12
2023-07-10T03:39:13.635Z,73.94
2023-07-10T03:39:34.674Z,74.15
2023-07-10T03:39:55.778Z,74.43
2023-07-10T03:40:16.826Z,74.57
2023-07-10T03:40:37.871Z,74.67
2023-07-10T03:40:58.933Z,74.67
2023-07-10T03:41:19.988Z,74.74
2023-07-10T03:41:41.057Z,74.64
2023-07-10T03:42:02.130Z,74.76
2023-07-10T03:42:23.184Z,74.69
2023-07-10T03:42:44.227Z,74.48
2023-07-10T03:43:05.300Z,74.39
2023-07-10T03:43:26.345Z,74.72
2023-07-10T03:43:47.404Z,75.06
2023-07-10T03:44:08.733Z,75.22
2023-07-10T03:44:29.990Z,75.43
2023-07-10T03:44:51.062Z,75.46
2023-07-10T03:45:12.104Z,75.40
2023-07-10T03:45:33.174Z,75.16
2023-07-10T03:45:54.229Z,75.26
2023-07-10T03:46:15.288Z,75.11
2023-07-10T03:46:36.360Z,75.21
2023-07-10T03:46:57.506Z,75.00
2023-07-10T03:47:18.553Z,74.92
2023-07-10T03:47:39.663Z,75.21
2023-07-10T03:48:00.748Z,75.36
2023-07-10T03:48:21.778Z,75.27
2023-07-10T03:48:42.833Z,75.34
2023-07-10T03:49:03.902Z,75.17
2023-07-10T03:49:25.001Z,75.13
2023-07-10T03:49:46.251Z,75.01
2023-07-10T03:50:07.323Z,74.86
2023-07-10T03:50:28.370Z,74.86
2023-07-10T03:50:49.428Z,74.76
2023-07-10T03:51:10.521Z,74.84
2023-07-10T03:51:31.556Z,75.08
2023-07-10T03:51:52.614Z,75.21
2023-07-10T03:52:13.694Z,75.21
2023-07-10T03:52:34.727Z,75.24
2023-07-10T03:52:55.785Z,75.31
2023-07-10T03:53:16.852Z,75.27
2023-07-10T03:53:37.900Z,75.17
2023-07-10T03:53:58.971Z,75.00
2023-07-10T03:54:20.020Z,74.88
2023-07-10T03:54:41.280Z,74.86
2023-07-10T03:55:02.598Z,74.65
2023-07-10T03:55:23.664Z,74.44
2023-07-10T03:55:44.701Z,74.22
2023-07-10T03:56:06.047Z,74.03
2023-07-10T03:56:27.242Z,73.92
2023-07-10T03:56:48.294Z,73.97
2023-07-10T03:57:09.356Z,74.00
2023-07-10T03:57:30.406Z,74.08
2023-07-10T03:57:51.471Z,74.05
2023-07-10T03:58:12.526Z,74.02
2023-07-10T03:58:33.593Z,74.02
2023-07-10T03:58:54.652Z,73.95
2023-07-10T03:59:15.701Z,73.88
2023-07-10T03:59:36.768Z,73.83
2023-07-10T03:59:57.884Z,73.77
2023-07-10T04:00:19.160Z,73.83
2023-07-10T04:00:40.233Z,73.83
2023-07-10T04:01:01.593Z,73.94
2023-07-10T04:01:22.814Z,73.99
2023-07-10T04:01:43.923Z,74.12
2023-07-10T04:02:04.989Z,74.21
2023-07-10T04:02:26.065Z,74.29
2023-07-10T04:02:47.142Z,74.36
2023-07-10T04:03:08.322Z,74.42
2023-07-10T04:03:29.449Z,74.37
2023-07-10T04:03:50.496Z,74.45
2023-07-10T04:04:11.553Z,74.48
2023-07-10T04:04:32.618Z,74.42
2023-07-10T04:04:53.663Z,74.32
2023-07-10T04:05:14.933Z,74.40
2023-07-10T04:05:36.027Z,74.02
2023-07-10T04:05:57.085Z,73.79
2023-07-10T04:06:18.171Z,73.80
2023-07-10T04:06:39.279Z,73.84
2023-07-10T04:07:00.349Z,73.82
2023-07-10T04:07:21.408Z,73.88
2023-07-10T04:07:42.461Z,73.80
2023-07-10T04:08:03.519Z,73.71
2023-07-10T04:08:24.581Z,73.66
2023-07-10T04:08:45.656Z,73.80
2023-07-10T04:09:06.715Z,73.87
2023-07-10T04:09:27.769Z,73.85
2023-07-10T04:09:48.829Z,73.85
2023-07-10T04:10:09.898Z,73.93
2023-07-10T04:10:31.013Z,74.01
2023-07-10T04:10:52.118Z,74.28
2023-07-10T04:11:13.162Z,74.35
2023-07-10T04:11:34.222Z,74.17
2023-07-10T04:11:55.281Z,74.20
2023-07-10T04:12:16.335Z,74.01
2023-07-10T04:12:37.401Z,73.93
2023-07-10T04:12:58.460Z,74.01
2023-07-10T04:13:19.531Z,74.21
2023-07-10T04:13:40.620Z,74.39
2023-07-10T04:14:01.715Z,74.48
2023-07-10T04:14:22.767Z,74.48
2023-07-10T04:14:43.814Z,74.54
2023-07-10T04:15:04.881Z,74.60
2023-07-10T04:15:25.948Z,74.65
2023-07-10T04:15:47.052Z,74.69
2023-07-10T04:16:08.480Z,74.68
2023-07-10T04:16:29.655Z,74.76
2023-07-10T04:16:50.754Z,74.77
2023-07-10T04:17:11.850Z,74.84
2023-07-10T04:17:35.871Z,75.00
2023-07-10T04:17:57.336Z,75.04
2023-07-10T04:18:18.364Z,75.12
2023-07-10T04:18:39.424Z,75.32
2023-07-10T04:19:00.494Z,75.29
2023-07-10T04:19:21.554Z,75.26
2023-07-10T04:19:42.628Z,75.47
2023-07-10T04:20:03.701Z,75.54
2023-07-10T04:20:24.751Z,75.58
2023-07-10T04:20:45.811Z,75.68
2023-07-10T04:21:06.908Z,75.64
2023-07-10T04:21:28.000Z,75.65
2023-07-10T04:21:49.062Z,75.66
2023-07-10T04:22:10.124Z,75.52
2023-07-10T04:22:31.192Z,75.38
2023-07-10T04:22:52.237Z,75.36
2023-07-10T04:23:13.310Z,75.46
2023-07-10T04:23:34.370Z,75.58
2023-07-10T04:23:55.431Z,75.76
2023-07-10T04:24:16.482Z,75.91
2023-07-10T04:24:37.539Z,75.70
2023-07-10T04:24:58.596Z,75.59
2023-07-10T04:25:19.655Z,75.74
2023-07-10T04:25:40.740Z,75.74
2023-07-10T04:26:02.201Z,75.78
2023-07-10T04:26:23.573Z,75.68
2023-07-10T04:26:44.676Z,75.72
2023-07-10T04:27:05.729Z,75.81
2023-07-10T04:27:26.782Z,75.73
2023-07-10T04:27:47.840Z,75.72
2023-07-10T04:28:08.896Z,75.82
2023-07-10T04:28:29.957Z,75.98
2023-07-10T04:28:51.031Z,76.00
2023-07-10T04:29:12.076Z,76.16
2023-07-10T04:29:33.149Z,76.20
2023-07-10T04:29:54.206Z,76.30
2023-07-10T04:30:15.259Z,76.44
2023-07-10T04:30:36.337Z,76.53
2023-07-10T04:30:57.402Z,76.51
2023-07-10T04:31:18.489Z,76.55
2023-07-10T04:31:39.630Z,76.53
2023-07-10T04:32:00.714Z,76.55